Flight Track Log - Related Links

Times and Time Zones

All times are in EST time to prevent confusion due to time zone crossing. See the FLG3824 flight status page for this flight to view local times or setup timezone preferences in your user account.


Time Position Orientation Groundspeed Altitude Reporting Facility
EST Latitude Longitude Course Direction KTS MPH feet Rate Location/Type
Sun 07:54:39 PM 42.2317 -83.3342 90° East 149 171 1,400  Level Cleveland Center
Sun 07:55:04 PM 42.2475 -83.3194 35° Northeast 173 199 2,100 2,023 Climbing Cleveland Center
Sun 07:56:05 PM 42.2947 -83.2781 33° Northeast 220 253 4,300 1,946 Climbing Cleveland Center
Sun 07:56:18 PM 42.2983 -83.2756 27° Northeast 200 230 4,500 1,840 Climbing Cleveland Center
Sun 07:57:20 PM 42.3319 -83.1983 59° Northeast 257 296 6,600 2,529 Climbing Cleveland Center
Sun 07:58:00 PM 42.3075 -83.1106 111° Southeast 292 336 8,800 2,419 Climbing Cleveland Center
Sun 07:58:22 PM 42.3050 -83.0942 102° East 290 334 9,100 1,059 Climbing Cleveland Center
Sun 07:59:25 PM 42.2703 -82.9547 109° East 347 399 10,300 1,680 Climbing Cleveland Center
Sun 08:00:00 PM 42.2970 -82.4579 90° East  Level Estimated
Sun 08:00:27 PM 42.2931 -82.8297 76° East 346 398 12,600  Level Cleveland Center
Sun 08:01:29 PM 42.3197 -82.7025 74° East 352 405 15,100 1,984 Climbing Cleveland Center
Sun 08:02:31 PM 42.3447 -82.5689 76° East 366 421 16,700 1,355 Climbing Cleveland Center
Sun 08:03:33 PM 42.3686 -82.4292 77° East 380 437 17,900 1,355 Climbing Cleveland Center
Sun 08:04:35 PM 42.3594 -82.2450 94° East 412 474 19,500 1,355 Climbing Cleveland Center
Sun 08:05:37 PM 42.3533 -82.0819 93° East 416 479 20,700 1,161 Climbing Cleveland Center
Sun 08:06:39 PM 42.3461 -81.9222 93° East 421 484 21,900 1,113 Climbing Cleveland Center
Sun 08:07:41 PM 42.3386 -81.7589 93° East 428 493 23,000 1,016 Climbing Cleveland Center
Sun 08:08:43 PM 42.3314 -81.5950 93° East 432 497 24,000 968 Climbing Cleveland Center
Sun 08:09:45 PM 42.3239 -81.4272 93° East 439 505 25,000 484 Climbing Cleveland Center
Sun 08:10:47 PM 42.3147 -81.2569 94° East 446 513 25,000 144 Level Cleveland Center
Sun 08:11:50 PM 42.3058 -81.0794 94° East 464 534 25,300 384 Climbing Cleveland Center
Sun 08:12:52 PM 42.2967 -80.9022 94° East 467 537 25,800 532 Climbing Cleveland Center
Sun 08:13:54 PM 42.2858 -80.6983 94° East 463 533 26,400 532 Climbing Cleveland Center
Sun 08:14:56 PM 42.2758 -80.5233 94° East 464 534 26,900 484 Climbing Cleveland Center
Sun 08:15:58 PM 42.2658 -80.3467 94° East 466 536 27,400 484 Climbing Cleveland Center
Sun 08:17:00 PM 42.2558 -80.1697 94° East 468 539 27,900 532 Climbing Cleveland Center
Sun 08:18:02 PM 42.2442 -79.9775 95° East 465 535 28,500 484 Climbing Cleveland Center
Sun 08:19:04 PM 42.2336 -79.8133 95° East 463 533 28,900 242 Climbing Cleveland Center
Sun 08:20:06 PM 42.2219 -79.6397 95° East 466 536 29,000 48 Climbing Cleveland Center
Sun 08:21:08 PM 42.2108 -79.4642 95° East 469 540 29,000  Level Cleveland Center
Sun 08:22:10 PM 42.1967 -79.2528 95° East 474 545 29,000  Level Cleveland Center
Sun 08:23:12 PM 42.1933 -79.0772 91° East 471 542 29,000  Level Cleveland Center
Sun 08:24:15 PM 42.2158 -78.9047 80° East 468 539 29,000  Level Cleveland Center
Sun 08:25:17 PM 42.2392 -78.7189 80° East 466 536 29,000  Level Cleveland Center
Sun 08:26:19 PM 42.2617 -78.5478 80° East 466 536 29,000  Level Cleveland Center
Sun 08:27:21 PM 42.2828 -78.3761 81° East 466 536 29,000  Level Cleveland Center
Sun 08:28:23 PM 42.3036 -78.2044 81° East 466 536 29,000  Level Cleveland Center
Sun 08:29:25 PM 42.3239 -78.0333 81° East 466 536 29,000  Level Cleveland Center
Sun 08:30:27 PM 42.3483 -77.8286 81° East 466 536 29,000  Level Cleveland Center
Sun 08:31:29 PM 42.3678 -77.6569 81° East 468 539 29,000  Level Cleveland Center
Sun 08:32:31 PM 42.3881 -77.4839 81° East 473 544 29,000  Level Cleveland Center
Sun 08:33:33 PM 42.4072 -77.3106 81° East 474 545 29,000  Level Cleveland Center
Sun 08:34:35 PM 42.4319 -77.0997 81° East 477 549 29,000  Level Cleveland Center
Sun 08:35:37 PM 42.4511 -76.9225 82° East 479 551 29,000  Level Cleveland Center
Sun 08:36:15 PM 42.4631 -76.8161 81° East 480 552 29,000  Level Boston Center
Sun 08:37:15 PM 42.4828 -76.6364 81° East 485 558 29,000  Level Boston Center
Sun 08:38:15 PM 42.5014 -76.4578 82° East 482 555 29,000  Level Boston Center
Sun 08:39:16 PM 42.5208 -76.2769 82° East 487 560 29,000  Level Boston Center
Sun 08:40:19 PM 42.5392 -76.1028 82° East 487 560 29,000 -726 Level Boston Center
Sun 08:41:20 PM 42.5569 -75.9192 82° East 494 568 27,500 -1,750 Descending Boston Center
Sun 08:42:19 PM 42.5753 -75.7350 82° East 497 572 25,500 -2,164 Descending Boston Center
Sun 08:43:22 PM 42.5961 -75.5181 82° East 490 564 23,100 -2,146 Descending Boston Center
Sun 08:44:22 PM 42.6131 -75.3394 83° East 483 556 21,100 -1,983 Descending Boston Center
Sun 08:45:23 PM 42.5994 -75.1711 96° East 461 531 19,100 -1,839 Descending Boston Center
Sun 08:46:26 PM 42.5886 -74.9914 95° East 432 497 17,300 -1,605 Descending Boston Center
Sun 08:46:49 PM 42.5847 -74.9347 95° East 397 457 16,800 -1,424 Descending Boston Center
Sun 08:47:25 PM 42.5814 -74.8594 93° East 395 455 15,900 -1,600 Descending Boston Center
Sun 08:47:49 PM 42.5764 -74.7889 95° East 380 437 15,200 -1,645 Descending Boston Center
Sun 08:48:27 PM 42.5706 -74.6983 95° East 392 451 14,200 -1,524 Descending Boston Center
Sun 08:48:52 PM 42.5658 -74.6422 97° East 391 450 13,600 -1,574 Descending Boston Center
Sun 08:49:28 PM 42.5597 -74.5525 95° East 389 448 12,600 -1,831 Descending Boston Center
Sun 08:49:51 PM 42.5606 -74.5008 89° East 382 440 11,800 -1,905 Descending Boston Center
Sun 08:50:31 PM 42.5600 -74.4050 90° East 364 419 10,600 -1,574 Descending Boston Center
Sun 08:50:52 PM 42.5592 -74.3606 91° East 325 374 10,200 -1,300 Descending Boston Center
Sun 08:51:31 PM 42.5594 -74.2889 90° East 312 359 9,300 -1,672 Descending Boston Center
Sun 08:51:53 PM 42.5592 -74.2469 91° East 289 333 8,500 -1,935 Descending Boston Center
Sun 08:52:33 PM 42.5594 -74.1794 90° East 294 338 7,300 -1,900 Descending Boston Center
Sun 08:52:53 PM 42.5578 -74.1392 93° East 287 330 6,600 -1,932 Descending Boston Center
Sun 08:53:32 PM 42.5586 -74.0664 89° East 281 323 5,400 -1,745 Descending Boston Center
Sun 08:53:48 PM 42.5586 -74.0433 90° East 277 319 5,000 -1,574 Descending Boston Center
Sun 08:54:33 PM 42.5575 -73.9678 91° East 264 304 3,800 -1,500 Descending Boston Center
Sun 08:54:48 PM 42.5572 -73.9469 91° East 256 295 3,500 -286 Descending Boston Center
Sun 08:55:36 PM 42.5711 -73.8839 73° East 224 258 3,500 -95 Level Boston Center
Sun 08:55:51 PM 42.5739 -73.8683 76° East 203 234 3,400 -1,000 Descending Boston Center
Sun 08:56:36 PM 42.5892 -73.8147 69° East 197 227 2,500 -1,000 Descending Boston Center
Sun 08:56:51 PM 42.5997 -73.8100 18° North 185 213 2,400 -197 Descending Boston Center
Sun 08:57:37 PM 42.6425 -73.8000 10° North 180 207 2,300 -295 Descending Boston Center
Sun 08:57:52 PM 42.6528 -73.8019 352° North 182 209 2,100 -960 Descending Boston Center
Sun 08:58:52 PM 42.6956 -73.8019 360° North 148 170 1,100 -826 Descending Boston Center
Sun 08:59:41 PM 42.7258 -73.8044 357° North 135 155 600 -590 Descending Boston Center
Sun 08:59:53 PM 42.7317 -73.8053 354° North 127 146 500 -500 Descending Boston Center
Sun 09:01:00 PM 42.7333 -73.8000 North  Level FlightAware Approximate

Login

Don't have an account? Register now (free) for customized features, flight alerts, and more!